• Join FlightAware (Why Join?)
  • Login
  • US Flag 
07:37AM EDT


 

Airport Tracker/Info


-or-


 

Live Flight TrackerFlight Track Log ✈ SWA1008 ✈ 16-May-2013 ✈ KDEN - KLAX

Flight Track Log - Related Links

Times and Time Zones

All times are in EDT time to prevent confusion due to time zone crossing. See the SWA1008 flight status page for this flight to view local times or setup timezone preferences in your user account.

Time Position Orientation Groundspeed Altitude Reporting Facility
EDT Latitude Longitude Course Direction KTS MPH feet Rate Location/Type
10:40AM 39.8333 -104.7667 255° West 204 235 6,800  Level Denver TRACON
10:41AM 39.8167 -104.8500 255° West 278 320 8,400 2,220 Climbing Denver TRACON
10:42AM 39.7836 -104.9378 244° Southwest 285 328 10,900 2,760 Climbing Denver Center
10:43AM 39.7456 -105.0514 246° West 344 396 13,600 3,000 Climbing Denver Center
10:44AM 39.7028 -105.1792 247° West 358 412 17,100 3,000 Climbing Denver Center
10:45AM 39.6600 -105.3047 246° West 380 437 19,800 2,700 Climbing Denver Center
10:46AM 39.6117 -105.4456 246° West 397 457 22,800 2,040 Climbing Denver Center
10:47AM 39.5664 -105.5761 246° West 402 463 24,100 1,620 Climbing Denver Center
10:48AM 39.5250 -105.7108 248° West 408 470 26,200 1,980 Climbing Denver Center
10:49AM 39.4858 -105.8575 251° West 406 467 28,200 1,860 Climbing Denver Center
10:50AM 39.4447 -106.0019 250° West 422 486 30,100 2,040 Climbing Denver Center
10:51AM 39.4053 -106.1456 250° West 423 487 32,500 1,860 Climbing Denver Center
10:52AM 39.3622 -106.2972 250° West 411 473 34,000 720 Climbing Denver Center
10:53AM 39.3244 -106.4308 250° West 412 474 34,000  Level Denver Center
10:54AM 39.2806 -106.5853 250° West 412 474 34,000 300 Level Denver Center
10:55AM 39.2408 -106.7183 249° West 414 476 34,700 1,080 Climbing Denver Center
10:56AM 39.1597 -106.8483 231° Southwest 414 476 36,300 1,260 Climbing Denver Center
10:57AM 39.0872 -106.9606 230° Southwest 421 484 37,400 780 Climbing Denver Center
10:58AM 39.0283 -107.0525 231° Southwest 419 482 38,000 240 Climbing Denver Center
10:59AM 38.9322 -107.2006 230° Southwest 421 484 38,000  Level Denver Center
11:00AM 38.8497 -107.3289 230° Southwest 416 479 38,000  Level Denver Center
11:01AM 38.7786 -107.4394 230° Southwest 419 482 38,000  Level Denver Center
11:02AM 38.7081 -107.5772 237° Southwest 416 479 38,000  Level Denver Center
11:03AM 38.6503 -107.6989 239° Southwest 416 479 38,000  Level Denver Center
11:04AM 38.5936 -107.8183 239° Southwest 412 474 38,000  Level Denver Center
11:05AM 38.5264 -107.9586 239° Southwest 413 475 38,000  Level Denver Center
11:06AM 38.4703 -108.0778 239° Southwest 409 471 38,000  Level Denver Center
11:07AM 38.4033 -108.2169 238° Southwest 411 473 38,000  Level Denver Center
11:08AM 38.3461 -108.3364 239° Southwest 411 473 38,000  Level Denver Center
11:09AM 38.2792 -108.4742 238° Southwest 410 472 38,000  Level Denver Center
11:11AM 38.2214 -108.5950 239° Southwest 414 476 38,000  Level Denver Center
11:12AM 38.1533 -108.7342 238° Southwest 414 476 38,000  Level Denver Center
11:13AM 38.0961 -108.8522 238° Southwest 412 474 38,000  Level Denver Center
11:14AM 38.0328 -108.9781 237° Southwest 408 470 38,000  Level Denver Center
11:15AM 37.9658 -109.1133 238° Southwest 405 466 38,000  Level Denver Center
11:16AM 37.9081 -109.2300 238° Southwest 406 467 38,000  Level Denver Center
11:17AM 37.8494 -109.3469 238° Southwest 410 472 38,000  Level Denver Center
11:18AM 37.7825 -109.4822 238° Southwest 408 470 38,000  Level Denver Center
11:19AM 37.7239 -109.5986 238° Southwest 410 472 38,000  Level Denver Center
11:20AM 37.6553 -109.7356 238° Southwest 414 476 38,000  Level Denver Center
11:21AM 37.5958 -109.8542 238° Southwest 418 481 38,000  Level Denver Center
11:22AM 37.5267 -109.9900 237° Southwest 416 479 38,000  Level Denver Center
11:23AM 37.4675 -110.1072 238° Southwest 415 478 38,000  Level Denver Center
11:24AM 37.4019 -110.2361 237° Southwest 412 474 38,000  Level Denver Center
11:25AM 37.3397 -110.3569 237° Southwest 412 474 38,000  Level Denver Center
11:26AM 37.2769 -110.4792 237° Southwest 416 479 38,000  Level Denver Center
11:27AM 37.2022 -110.6253 237° Southwest 414 476 38,000  Level Denver Center
11:28AM 37.1397 -110.7453 237° Southwest 411 473 38,000  Level Denver Center
11:29AM 37.0886 -110.8406 236° Southwest 411 473 38,000  Level Denver Center
11:30AM 37.0139 -110.9853 237° Southwest 412 474 38,000  Level Denver Center
11:31AM 36.9389 -111.1278 237° Southwest 408 470 38,000  Level Denver Center
11:32AM 36.8769 -111.2472 237° Southwest 409 471 38,000  Level Denver Center
11:33AM 36.8022 -111.3906 237° Southwest 410 472 38,000  Level Denver Center
11:35AM 36.7383 -111.5103 236° Southwest 412 474 38,000  Level Denver Center
11:36AM 36.6747 -111.6303 237° Southwest 414 476 38,000  Level Denver Center
11:37AM 36.6214 -111.7575 242° Southwest 414 476 38,000  Level Denver Center
11:38AM 36.5786 -111.8569 242° Southwest 410 472 38,000  Level Denver Center
11:38AM 36.5242 -111.9822 242° Southwest 411 473 38,000  Level Los Angeles Center
11:40AM 36.4583 -112.1314 241° Southwest 411 473 38,000  Level Los Angeles Center
11:41AM 36.4036 -112.2553 241° Southwest 409 471 38,000  Level Los Angeles Center
11:42AM 36.3500 -112.3789 242° Southwest 408 470 38,000 -180 Level Los Angeles Center
11:43AM 36.2939 -112.5039 241° Southwest 413 475 37,700 -600 Descending Los Angeles Center
11:44AM 36.2389 -112.6272 241° Southwest 411 473 36,800 -840 Descending Los Angeles Center
11:45AM 36.1831 -112.7519 241° Southwest 414 476 36,000 -420 Descending Los Angeles Center
11:46AM 36.1167 -112.9014 241° Southwest 415 478 36,000  Level Los Angeles Center
11:47AM 36.0603 -113.0261 241° Southwest 416 479 36,000  Level Los Angeles Center
11:48AM 36.0156 -113.1253 241° Southwest 414 476 36,000  Level Los Angeles Center
11:49AM 35.9536 -113.2633 241° Southwest 415 478 36,000  Level Los Angeles Center
11:50AM 35.8861 -113.4117 241° Southwest 417 480 36,000  Level Los Angeles Center
11:51AM 35.8294 -113.5344 240° Southwest 417 480 36,000  Level Los Angeles Center
11:52AM 35.7756 -113.6525 241° Southwest 417 480 36,000  Level Los Angeles Center
11:53AM 35.7069 -113.8017 241° Southwest 416 479 36,000  Level Los Angeles Center
11:54AM 35.6486 -113.9281 240° Southwest 417 480 36,000  Level Los Angeles Center
11:55AM 35.5928 -114.0497 241° Southwest 413 475 36,000  Level Los Angeles Center
11:56AM 35.5358 -114.1731 240° Southwest 416 479 36,000  Level Los Angeles Center
11:57AM 35.4781 -114.2967 240° Southwest 416 479 36,000  Level Los Angeles Center
11:58AM 35.4211 -114.4172 240° Southwest 411 473 36,000  Level Los Angeles Center
11:59AM 35.3519 -114.5664 240° Southwest 416 479 36,000  Level Los Angeles Center
12:00PM 35.2925 -114.6900 240° Southwest 419 482 36,000  Level Los Angeles Center
12:01PM 35.2344 -114.8117 240° Southwest 415 478 36,000  Level Los Angeles Center
12:03PM 35.1584 -114.9504 239° Southwest  Level FlightAware Approximate
12:03PM 35.1181 -115.0556 239° Southwest 416 479 36,000  Level Los Angeles Center
12:04PM 35.0614 -115.1778 240° Southwest 414 476 36,000  Level Los Angeles Center
12:05PM 34.9931 -115.3186 239° Southwest 415 478 36,000  Level Los Angeles Center
12:06PM 34.9336 -115.4411 239° Southwest 418 481 36,000  Level Los Angeles Center
12:07PM 34.8750 -115.5639 240° Southwest 420 483 36,000  Level Los Angeles Center
12:09PM 34.8150 -115.6853 239° Southwest 419 482 36,000  Level Los Angeles Center
12:10PM 34.7556 -115.8086 240° Southwest 422 486 36,000  Level Los Angeles Center
12:11PM 34.6947 -115.9308 239° Southwest 423 487 36,000 -540 Level Los Angeles Center
12:12PM 34.6244 -116.0761 240° Southwest 416 479 34,900 -1,020 Descending Los Angeles Center
12:13PM 34.5639 -116.1975 239° Southwest 419 482 33,900 -960 Descending Los Angeles Center
12:14PM 34.5033 -116.3194 239° Southwest 421 484 33,000 -960 Descending Los Angeles Center
12:15PM 34.4425 -116.4422 239° Southwest 424 488 32,000 -1,500 Descending Los Angeles Center
12:16PM 34.3806 -116.5647 239° Southwest 426 490 29,900 -2,040 Descending Los Angeles Center
12:17PM 34.3203 -116.6872 239° Southwest 422 486 27,400 -2,640 Descending Los Angeles Center
12:18PM 34.2386 -116.8483 239° Southwest 401 461 24,000 -2,760 Descending Los Angeles Center
12:19PM 34.1822 -116.9589 238° Southwest 390 449 21,700 -2,220 Descending Los Angeles Center
12:20PM 34.1297 -117.0639 239° Southwest 369 425 19,500 -1,920 Descending Los Angeles Center
12:21PM 34.0667 -117.1833 238° Southwest 339 390 17,600 -1,920 Descending Southern California TRACON
12:22PM 34.0500 -117.2833 259° West 331 381 15,500 -2,040 Descending Southern California TRACON
12:23PM 34.0333 -117.4000 260° West 324 373 13,600 -1,620 Descending Southern California TRACON
12:24PM 34.0167 -117.5000 259° West 300 345 12,300 -1,500 Descending Southern California TRACON
12:25PM 34.0167 -117.6000 270° West 367 422 10,700 -1,200 Descending Southern California TRACON
12:26PM 34.0167 -117.7000 270° West 264 304 10,000 -300 Descending Southern California TRACON
12:27PM 34.0167 -117.7833 270° West 274 315 10,100 -780 Climbing Southern California TRACON
12:28PM 34.0000 -117.8833 259° West 282 325 8,500 -1,500 Descending Southern California TRACON
12:29PM 34.0000 -117.9667 270° West 269 310 7,200 -1,320 Descending Southern California TRACON
12:30PM 33.9833 -118.0500 256° West 233 268 5,900 -1,260 Descending Southern California TRACON
12:31PM 33.9833 -118.1333 270° West 219 252 4,600 -1,140 Descending Southern California TRACON
12:32PM 33.9781 -118.1453 242° Southwest 222 255 4,300 -1,080 Descending Los Angeles Center
12:33PM 33.9708 -118.2222 264° West 198 228 3,100 -1,080 Descending Los Angeles Center
12:34PM 33.9642 -118.2850 263° West 193 222 2,100 -960 Descending Los Angeles Center
12:35PM 33.9589 -118.3431 264° West 186 214 1,200 -840 Descending Los Angeles Center
12:36PM 33.9542 -118.3900 263° West 158 182 400 -780 Descending Los Angeles Center
12:38PM 33.9333 -118.4000 259° West  Level FlightAware Approximate
12:45PM 33.9425 -118.4081 259° West  Level Estimated